sensor_id;sensor_type;location;lat;lon;timestamp;P1;durP1;ratioP1;P2;durP2;ratioP2
25139;SDS011;39015;48.106;-1.682;2023-02-04T07:15:12;0.30;;;0.30;;
25139;SDS011;39015;48.106;-1.682;2023-02-04T07:17:39;0.60;;;0.20;;
25139;SDS011;39015;48.106;-1.682;2023-02-04T07:20:08;0.47;;;0.47;;
25139;SDS011;39015;48.106;-1.682;2023-02-04T07:22:36;0.40;;;0.40;;
25139;SDS011;39015;48.106;-1.682;2023-02-04T07:25:06;0.85;;;0.45;;
25139;SDS011;39015;48.106;-1.682;2023-02-04T07:27:34;0.85;;;0.35;;
25139;SDS011;39015;48.106;-1.682;2023-02-04T07:30:01;0.40;;;0.40;;
25139;SDS011;39015;48.106;-1.682;2023-02-04T07:32:30;0.40;;;0.40;;
25139;SDS011;39015;48.106;-1.682;2023-02-04T07:37:24;0.40;;;0.40;;
25139;SDS011;39015;48.106;-1.682;2023-02-04T07:39:51;0.30;;;0.30;;
25139;SDS011;39015;48.106;-1.682;2023-02-04T07:42:18;0.63;;;0.63;;
25139;SDS011;39015;48.106;-1.682;2023-02-04T07:44:45;0.57;;;0.57;;
25139;SDS011;39015;48.106;-1.682;2023-02-04T07:47:15;3.45;;;0.52;;
25139;SDS011;39015;48.106;-1.682;2023-02-04T07:49:49;0.80;;;0.45;;
25139;SDS011;39015;48.106;-1.682;2023-02-04T07:52:16;0.38;;;0.38;;
25139;SDS011;39015;48.106;-1.682;2023-02-04T07:54:43;0.30;;;0.30;;
25139;SDS011;39015;48.106;-1.682;2023-02-04T07:57:10;0.47;;;0.47;;
25139;SDS011;39015;48.106;-1.682;2023-02-04T07:59:37;1.58;;;0.47;;
25139;SDS011;39015;48.106;-1.682;2023-02-04T08:02:04;0.40;;;0.40;;
25139;SDS011;39015;48.106;-1.682;2023-02-04T08:04:34;0.50;;;0.47;;
25139;SDS011;39015;48.106;-1.682;2023-02-04T08:07:11;0.45;;;0.45;;
25139;SDS011;39015;48.106;-1.682;2023-02-04T08:09:40;0.32;;;0.30;;
25139;SDS011;39015;48.106;-1.682;2023-02-04T08:12:07;0.70;;;0.60;;
25139;SDS011;39015;48.106;-1.682;2023-02-04T08:14:34;0.95;;;0.88;;
25139;SDS011;39015;48.106;-1.682;2023-02-04T08:17:01;0.38;;;0.38;;
25139;SDS011;39015;48.106;-1.682;2023-02-04T08:19:28;0.50;;;0.50;;
25139;SDS011;39015;48.106;-1.682;2023-02-04T08:21:55;0.30;;;0.30;;
25139;SDS011;39015;48.106;-1.682;2023-02-04T08:24:24;1.70;;;0.60;;
25139;SDS011;39015;48.106;-1.682;2023-02-04T08:26:51;0.22;;;0.22;;
25139;SDS011;39015;48.106;-1.682;2023-02-04T08:29:22;0.38;;;0.30;;
25139;SDS011;39015;48.106;-1.682;2023-02-04T08:31:51;0.40;;;0.40;;
25139;SDS011;39015;48.106;-1.682;2023-02-04T08:34:19;0.30;;;0.30;;
25139;SDS011;39015;48.106;-1.682;2023-02-04T08:36:46;0.43;;;0.43;;
25139;SDS011;39015;48.106;-1.682;2023-02-04T08:39:16;0.35;;;0.35;;
25139;SDS011;39015;48.106;-1.682;2023-02-04T08:41:46;0.35;;;0.35;;
25139;SDS011;39015;48.106;-1.682;2023-02-04T08:44:22;0.40;;;0.40;;
25139;SDS011;39015;48.106;-1.682;2023-02-04T08:46:52;0.85;;;0.55;;
25139;SDS011;39015;48.106;-1.682;2023-02-04T08:49:21;0.30;;;0.30;;
25139;SDS011;39015;48.106;-1.682;2023-02-04T08:51:55;1.15;;;0.55;;
25139;SDS011;39015;48.106;-1.682;2023-02-04T08:54:24;0.70;;;0.70;;
25139;SDS011;39015;48.106;-1.682;2023-02-04T08:56:58;1.48;;;0.60;;
25139;SDS011;39015;48.106;-1.682;2023-02-04T08:59:26;0.63;;;0.40;;
25139;SDS011;39015;48.106;-1.682;2023-02-04T09:01:59;0.40;;;0.40;;
25139;SDS011;39015;48.106;-1.682;2023-02-04T09:04:28;0.60;;;0.60;;
25139;SDS011;39015;48.106;-1.682;2023-02-04T09:06:56;1.83;;;0.68;;
25139;SDS011;39015;48.106;-1.682;2023-02-04T09:09:23;0.45;;;0.43;;
25139;SDS011;39015;48.106;-1.682;2023-02-04T09:11:50;0.90;;;0.60;;
25139;SDS011;39015;48.106;-1.682;2023-02-04T09:14:18;0.60;;;0.60;;
25139;SDS011;39015;48.106;-1.682;2023-02-04T09:16:45;3.00;;;1.03;;
25139;SDS011;39015;48.106;-1.682;2023-02-04T09:19:13;1.98;;;1.05;;
25139;SDS011;39015;48.106;-1.682;2023-02-04T09:21:40;2.63;;;1.38;;
25139;SDS011;39015;48.106;-1.682;2023-02-04T09:24:08;5.78;;;1.10;;
25139;SDS011;39015;48.106;-1.682;2023-02-04T09:26:35;2.47;;;0.88;;
25139;SDS011;39015;48.106;-1.682;2023-02-04T09:29:02;0.85;;;0.60;;
25139;SDS011;39015;48.106;-1.682;2023-02-04T09:31:30;1.75;;;0.65;;
25139;SDS011;39015;48.106;-1.682;2023-02-04T09:33:57;0.93;;;0.80;;
25139;SDS011;39015;48.106;-1.682;2023-02-04T09:36:25;6.10;;;1.08;;
25139;SDS011;39015;48.106;-1.682;2023-02-04T09:38:54;1.48;;;0.57;;
25139;SDS011;39015;48.106;-1.682;2023-02-04T09:41:21;0.82;;;0.82;;
25139;SDS011;39015;48.106;-1.682;2023-02-04T09:43:48;0.90;;;0.75;;
25139;SDS011;39015;48.106;-1.682;2023-02-04T09:46:17;1.48;;;0.82;;
25139;SDS011;39015;48.106;-1.682;2023-02-04T09:48:48;1.58;;;0.70;;
25139;SDS011;39015;48.106;-1.682;2023-02-04T09:51:16;0.70;;;0.70;;
25139;SDS011;39015;48.106;-1.682;2023-02-04T09:53:47;0.93;;;0.60;;
25139;SDS011;39015;48.106;-1.682;2023-02-04T09:56:17;0.73;;;0.60;;
25139;SDS011;39015;48.106;-1.682;2023-02-04T09:58:45;1.52;;;0.65;;
25139;SDS011;39015;48.106;-1.682;2023-02-04T10:01:13;0.95;;;0.73;;
25139;SDS011;39015;48.106;-1.682;2023-02-04T10:03:41;1.65;;;0.85;;
25139;SDS011;39015;48.106;-1.682;2023-02-04T10:06:13;1.30;;;0.95;;
25139;SDS011;39015;48.106;-1.682;2023-02-04T10:08:42;0.75;;;0.60;;
25139;SDS011;39015;48.106;-1.682;2023-02-04T10:11:10;1.65;;;0.77;;
25139;SDS011;39015;48.106;-1.682;2023-02-04T10:13:38;3.77;;;1.10;;
25139;SDS011;39015;48.106;-1.682;2023-02-04T10:16:11;1.00;;;0.75;;
25139;SDS011;39015;48.106;-1.682;2023-02-04T10:18:40;1.48;;;0.82;;
25139;SDS011;39015;48.106;-1.682;2023-02-04T10:21:12;1.20;;;0.90;;
25139;SDS011;39015;48.106;-1.682;2023-02-04T10:23:45;0.68;;;0.68;;
25139;SDS011;39015;48.106;-1.682;2023-02-04T10:26:14;0.43;;;0.43;;
25139;SDS011;39015;48.106;-1.682;2023-02-04T10:28:43;0.60;;;0.60;;
25139;SDS011;39015;48.106;-1.682;2023-02-04T10:31:26;0.60;;;0.60;;
25139;SDS011;39015;48.106;-1.682;2023-02-04T10:34:01;0.57;;;0.57;;
25139;SDS011;39015;48.106;-1.682;2023-02-04T10:36:31;0.85;;;0.63;;
25139;SDS011;39015;48.106;-1.682;2023-02-04T10:38:58;2.95;;;0.73;;
25139;SDS011;39015;48.106;-1.682;2023-02-04T10:41:26;1.77;;;1.02;;
25139;SDS011;39015;48.106;-1.682;2023-02-04T10:43:54;1.35;;;0.63;;
25139;SDS011;39015;48.106;-1.682;2023-02-04T10:46:28;0.50;;;0.50;;
25139;SDS011;39015;48.106;-1.682;2023-02-04T10:48:56;1.52;;;0.90;;
25139;SDS011;39015;48.106;-1.682;2023-02-04T10:51:23;1.08;;;0.70;;
25139;SDS011;39015;48.106;-1.682;2023-02-04T10:53:52;1.17;;;0.65;;
25139;SDS011;39015;48.106;-1.682;2023-02-04T10:56:36;0.60;;;0.60;;
25139;SDS011;39015;48.106;-1.682;2023-02-04T10:59:04;4.75;;;1.55;;
25139;SDS011;39015;48.106;-1.682;2023-02-04T11:01:34;1.02;;;0.75;;
25139;SDS011;39015;48.106;-1.682;2023-02-04T11:04:01;1.25;;;0.55;;
25139;SDS011;39015;48.106;-1.682;2023-02-04T11:06:28;0.60;;;0.60;;
25139;SDS011;39015;48.106;-1.682;2023-02-04T11:08:57;6.95;;;1.13;;
25139;SDS011;39015;48.106;-1.682;2023-02-04T11:11:24;2.35;;;0.85;;
25139;SDS011;39015;48.106;-1.682;2023-02-04T11:13:59;0.95;;;0.95;;
25139;SDS011;39015;48.106;-1.682;2023-02-04T11:16:27;0.73;;;0.73;;
25139;SDS011;39015;48.106;-1.682;2023-02-04T11:18:58;0.60;;;0.60;;
25139;SDS011;39015;48.106;-1.682;2023-02-04T11:21:27;0.60;;;0.60;;
25139;SDS011;39015;48.106;-1.682;2023-02-04T11:24:23;0.80;;;0.80;;
25139;SDS011;39015;48.106;-1.682;2023-02-04T11:27:05;1.00;;;0.65;;
25139;SDS011;39015;48.106;-1.682;2023-02-04T11:29:47;0.95;;;0.65;;
25139;SDS011;39015;48.106;-1.682;2023-02-04T11:32:32;0.80;;;0.80;;
25139;SDS011;39015;48.106;-1.682;2023-02-04T11:35:05;0.40;;;0.40;;
25139;SDS011;39015;48.106;-1.682;2023-02-04T11:37:46;2.67;;;0.50;;
25139;SDS011;39015;48.106;-1.682;2023-02-04T11:40:23;0.80;;;0.47;;
25139;SDS011;39015;48.106;-1.682;2023-02-04T11:42:56;1.85;;;0.60;;
25139;SDS011;39015;48.106;-1.682;2023-02-04T11:45:26;1.20;;;0.40;;
25139;SDS011;39015;48.106;-1.682;2023-02-04T11:47:56;0.47;;;0.40;;
25139;SDS011;39015;48.106;-1.682;2023-02-04T11:52:57;3.58;;;0.75;;
25139;SDS011;39015;48.106;-1.682;2023-02-04T11:55:29;0.60;;;0.57;;
25139;SDS011;39015;48.106;-1.682;2023-02-04T11:58:00;0.65;;;0.65;;
25139;SDS011;39015;48.106;-1.682;2023-02-04T12:00:28;2.53;;;0.85;;
25139;SDS011;39015;48.106;-1.682;2023-02-04T12:02:57;0.77;;;0.77;;
25139;SDS011;39015;48.106;-1.682;2023-02-04T12:05:37;0.70;;;0.70;;
25139;SDS011;39015;48.106;-1.682;2023-02-04T12:08:10;1.33;;;0.70;;
25139;SDS011;39015;48.106;-1.682;2023-02-04T12:10:58;1.00;;;0.70;;
25139;SDS011;39015;48.106;-1.682;2023-02-04T12:13:27;0.60;;;0.40;;
25139;SDS011;39015;48.106;-1.682;2023-02-04T12:15:57;0.63;;;0.52;;
25139;SDS011;39015;48.106;-1.682;2023-02-04T12:18:25;0.80;;;0.80;;
25139;SDS011;39015;48.106;-1.682;2023-02-04T12:20:53;1.65;;;0.60;;
25139;SDS011;39015;48.106;-1.682;2023-02-04T12:23:23;1.08;;;0.60;;
25139;SDS011;39015;48.106;-1.682;2023-02-04T12:25:53;1.17;;;0.85;;
25139;SDS011;39015;48.106;-1.682;2023-02-04T12:28:20;1.33;;;1.02;;
25139;SDS011;39015;48.106;-1.682;2023-02-04T12:30:47;0.77;;;0.77;;
25139;SDS011;39015;48.106;-1.682;2023-02-04T12:33:14;0.98;;;0.98;;
25139;SDS011;39015;48.106;-1.682;2023-02-04T12:35:41;0.50;;;0.50;;
25139;SDS011;39015;48.106;-1.682;2023-02-04T12:38:08;0.95;;;0.65;;
25139;SDS011;39015;48.106;-1.682;2023-02-04T12:40:36;0.40;;;0.40;;
25139;SDS011;39015;48.106;-1.682;2023-02-04T12:43:05;0.47;;;0.47;;
25139;SDS011;39015;48.106;-1.682;2023-02-04T12:45:32;0.60;;;0.60;;
25139;SDS011;39015;48.106;-1.682;2023-02-04T12:48:02;2.63;;;0.88;;
25139;SDS011;39015;48.106;-1.682;2023-02-04T12:50:30;3.05;;;1.48;;
25139;SDS011;39015;48.106;-1.682;2023-02-04T12:52:58;1.38;;;0.90;;
25139;SDS011;39015;48.106;-1.682;2023-02-04T12:55:26;3.88;;;0.90;;
25139;SDS011;39015;48.106;-1.682;2023-02-04T13:00:23;1.30;;;0.85;;
25139;SDS011;39015;48.106;-1.682;2023-02-04T13:02:51;2.75;;;0.98;;
25139;SDS011;39015;48.106;-1.682;2023-02-04T13:05:20;0.75;;;0.65;;
25139;SDS011;39015;48.106;-1.682;2023-02-04T13:07:47;0.88;;;0.88;;
25139;SDS011;39015;48.106;-1.682;2023-02-04T13:10:14;2.90;;;0.82;;
25139;SDS011;39015;48.106;-1.682;2023-02-04T13:12:42;1.88;;;0.75;;
25139;SDS011;39015;48.106;-1.682;2023-02-04T13:15:09;2.08;;;0.70;;
25139;SDS011;39015;48.106;-1.682;2023-02-04T13:17:38;0.60;;;0.60;;
25139;SDS011;39015;48.106;-1.682;2023-02-04T13:20:05;0.68;;;0.57;;
25139;SDS011;39015;48.106;-1.682;2023-02-04T13:22:33;0.60;;;0.60;;
25139;SDS011;39015;48.106;-1.682;2023-02-04T13:25:01;1.13;;;0.88;;
25139;SDS011;39015;48.106;-1.682;2023-02-04T13:27:29;0.90;;;0.60;;
25139;SDS011;39015;48.106;-1.682;2023-02-04T13:29:58;0.77;;;0.77;;
25139;SDS011;39015;48.106;-1.682;2023-02-04T13:32:26;3.67;;;0.77;;
25139;SDS011;39015;48.106;-1.682;2023-02-04T13:34:55;0.60;;;0.60;;
25139;SDS011;39015;48.106;-1.682;2023-02-04T13:37:22;0.50;;;0.50;;
25139;SDS011;39015;48.106;-1.682;2023-02-04T13:39:49;1.48;;;0.68;;
25139;SDS011;39015;48.106;-1.682;2023-02-04T13:42:16;0.65;;;0.65;;
25139;SDS011;39015;48.106;-1.682;2023-02-04T13:44:44;1.00;;;0.70;;
25139;SDS011;39015;48.106;-1.682;2023-02-04T13:47:13;0.55;;;0.50;;
25139;SDS011;39015;48.106;-1.682;2023-02-04T13:49:41;3.88;;;0.90;;
25139;SDS011;39015;48.106;-1.682;2023-02-04T13:52:10;0.70;;;0.70;;
25139;SDS011;39015;48.106;-1.682;2023-02-04T13:54:38;0.67;;;0.67;;
25139;SDS011;39015;48.106;-1.682;2023-02-04T13:57:05;1.40;;;0.90;;
25139;SDS011;39015;48.106;-1.682;2023-02-04T13:59:32;1.00;;;0.85;;
25139;SDS011;39015;48.106;-1.682;2023-02-04T14:01:59;0.55;;;0.55;;
25139;SDS011;39015;48.106;-1.682;2023-02-04T14:04:26;0.45;;;0.43;;
25139;SDS011;39015;48.106;-1.682;2023-02-04T14:06:53;1.08;;;0.63;;
25139;SDS011;39015;48.106;-1.682;2023-02-04T14:09:22;0.70;;;0.68;;
25139;SDS011;39015;48.106;-1.682;2023-02-04T14:11:49;0.85;;;0.57;;
25139;SDS011;39015;48.106;-1.682;2023-02-04T14:14:16;1.95;;;0.90;;
25139;SDS011;39015;48.106;-1.682;2023-02-04T14:16:43;0.75;;;0.40;;
25139;SDS011;39015;48.106;-1.682;2023-02-04T14:19:10;0.70;;;0.63;;
25139;SDS011;39015;48.106;-1.682;2023-02-04T14:21:39;1.30;;;0.70;;
25139;SDS011;39015;48.106;-1.682;2023-02-04T14:24:06;0.60;;;0.50;;
25139;SDS011;39015;48.106;-1.682;2023-02-04T14:26:34;0.40;;;0.40;;
25139;SDS011;39015;48.106;-1.682;2023-02-04T14:29:01;0.65;;;0.57;;
25139;SDS011;39015;48.106;-1.682;2023-02-04T14:31:30;0.40;;;0.40;;
25139;SDS011;39015;48.106;-1.682;2023-02-04T14:33:58;0.40;;;0.40;;
25139;SDS011;39015;48.106;-1.682;2023-02-04T14:36:25;0.50;;;0.50;;
25139;SDS011;39015;48.106;-1.682;2023-02-04T14:38:52;3.05;;;0.80;;
25139;SDS011;39015;48.106;-1.682;2023-02-04T14:41:19;0.40;;;0.40;;
25139;SDS011;39015;48.106;-1.682;2023-02-04T14:43:47;0.75;;;0.60;;
25139;SDS011;39015;48.106;-1.682;2023-02-04T14:46:14;0.50;;;0.50;;
25139;SDS011;39015;48.106;-1.682;2023-02-04T14:48:42;0.77;;;0.35;;
25139;SDS011;39015;48.106;-1.682;2023-02-04T14:51:10;0.35;;;0.35;;
25139;SDS011;39015;48.106;-1.682;2023-02-04T14:53:37;0.50;;;0.50;;
25139;SDS011;39015;48.106;-1.682;2023-02-04T14:56:05;0.47;;;0.47;;
25139;SDS011;39015;48.106;-1.682;2023-02-04T14:58:32;0.93;;;0.77;;
25139;SDS011;39015;48.106;-1.682;2023-02-04T15:01:03;4.38;;;1.10;;
25139;SDS011;39015;48.106;-1.682;2023-02-04T15:03:30;2.30;;;0.50;;
25139;SDS011;39015;48.106;-1.682;2023-02-04T15:05:57;0.73;;;0.50;;
25139;SDS011;39015;48.106;-1.682;2023-02-04T15:08:25;0.93;;;0.70;;
25139;SDS011;39015;48.106;-1.682;2023-02-04T15:10:53;0.40;;;0.40;;
25139;SDS011;39015;48.106;-1.682;2023-02-04T15:13:20;0.57;;;0.50;;
25139;SDS011;39015;48.106;-1.682;2023-02-04T15:15:47;3.20;;;0.57;;
25139;SDS011;39015;48.106;-1.682;2023-02-04T15:18:16;0.50;;;0.50;;
25139;SDS011;39015;48.106;-1.682;2023-02-04T15:20:43;1.08;;;0.45;;
25139;SDS011;39015;48.106;-1.682;2023-02-04T15:23:10;0.60;;;0.60;;
25139;SDS011;39015;48.106;-1.682;2023-02-04T15:25:39;0.50;;;0.50;;
25139;SDS011;39015;48.106;-1.682;2023-02-04T15:28:06;2.28;;;1.00;;
25139;SDS011;39015;48.106;-1.682;2023-02-04T15:30:33;0.50;;;0.50;;
25139;SDS011;39015;48.106;-1.682;2023-02-04T15:33:00;0.75;;;0.43;;
25139;SDS011;39015;48.106;-1.682;2023-02-04T15:35:29;1.17;;;0.70;;
25139;SDS011;39015;48.106;-1.682;2023-02-04T15:37:56;7.75;;;1.20;;
25139;SDS011;39015;48.106;-1.682;2023-02-04T15:40:23;8.88;;;1.65;;
25139;SDS011;39015;48.106;-1.682;2023-02-04T15:42:53;3.90;;;1.48;;
25139;SDS011;39015;48.106;-1.682;2023-02-04T15:45:21;11.10;;;1.65;;
25139;SDS011;39015;48.106;-1.682;2023-02-04T15:47:48;4.72;;;1.95;;
25139;SDS011;39015;48.106;-1.682;2023-02-04T15:50:15;3.13;;;1.63;;
25139;SDS011;39015;48.106;-1.682;2023-02-04T15:52:44;8.13;;;1.98;;
25139;SDS011;39015;48.106;-1.682;2023-02-04T15:55:11;4.03;;;2.10;;
25139;SDS011;39015;48.106;-1.682;2023-02-04T15:57:38;8.73;;;1.88;;
25139;SDS011;39015;48.106;-1.682;2023-02-04T16:00:07;4.32;;;1.55;;
25139;SDS011;39015;48.106;-1.682;2023-02-04T16:02:34;4.57;;;1.80;;
25139;SDS011;39015;48.106;-1.682;2023-02-04T16:05:01;4.53;;;1.80;;
25139;SDS011;39015;48.106;-1.682;2023-02-04T16:07:28;2.70;;;1.38;;
25139;SDS011;39015;48.106;-1.682;2023-02-04T16:09:57;8.35;;;2.20;;
25139;SDS011;39015;48.106;-1.682;2023-02-04T16:12:24;1.33;;;1.23;;
25139;SDS011;39015;48.106;-1.682;2023-02-04T16:14:51;4.38;;;1.10;;
25139;SDS011;39015;48.106;-1.682;2023-02-04T16:17:18;1.25;;;0.82;;
25139;SDS011;39015;48.106;-1.682;2023-02-04T16:19:45;2.85;;;1.80;;
25139;SDS011;39015;48.106;-1.682;2023-02-04T16:22:12;3.03;;;1.15;;
25139;SDS011;39015;48.106;-1.682;2023-02-04T16:24:39;5.68;;;1.45;;
25139;SDS011;39015;48.106;-1.682;2023-02-04T16:27:07;1.55;;;1.02;;
25139;SDS011;39015;48.106;-1.682;2023-02-04T16:29:34;3.80;;;1.23;;
25139;SDS011;39015;48.106;-1.682;2023-02-04T16:32:01;1.58;;;0.93;;
25139;SDS011;39015;48.106;-1.682;2023-02-04T16:34:28;1.88;;;1.58;;
25139;SDS011;39015;48.106;-1.682;2023-02-04T16:36:55;0.70;;;0.68;;
25139;SDS011;39015;48.106;-1.682;2023-02-04T16:39:22;1.02;;;0.82;;
25139;SDS011;39015;48.106;-1.682;2023-02-04T16:41:49;1.80;;;1.15;;
25139;SDS011;39015;48.106;-1.682;2023-02-04T16:44:18;0.85;;;0.77;;
25139;SDS011;39015;48.106;-1.682;2023-02-04T16:46:45;4.45;;;1.63;;
25139;SDS011;39015;48.106;-1.682;2023-02-04T16:49:13;1.75;;;0.90;;
25139;SDS011;39015;48.106;-1.682;2023-02-04T16:51:40;4.70;;;1.20;;
25139;SDS011;39015;48.106;-1.682;2023-02-04T16:54:07;2.53;;;0.88;;
25139;SDS011;39015;48.106;-1.682;2023-02-04T16:56:34;3.30;;;0.95;;
25139;SDS011;39015;48.106;-1.682;2023-02-04T16:59:01;2.03;;;0.82;;
25139;SDS011;39015;48.106;-1.682;2023-02-04T17:01:30;0.80;;;0.80;;
25139;SDS011;39015;48.106;-1.682;2023-02-04T17:04:06;2.55;;;0.65;;
25139;SDS011;39015;48.106;-1.682;2023-02-04T17:06:34;1.70;;;0.93;;
25139;SDS011;39015;48.106;-1.682;2023-02-04T17:09:01;2.30;;;0.85;;
25139;SDS011;39015;48.106;-1.682;2023-02-04T17:11:28;1.60;;;1.30;;
25139;SDS011;39015;48.106;-1.682;2023-02-04T17:13:55;1.58;;;0.93;;
25139;SDS011;39015;48.106;-1.682;2023-02-04T17:16:23;2.35;;;1.10;;
25139;SDS011;39015;48.106;-1.682;2023-02-04T17:18:52;1.10;;;1.10;;
25139;SDS011;39015;48.106;-1.682;2023-02-04T17:21:20;1.08;;;0.70;;
25139;SDS011;39015;48.106;-1.682;2023-02-04T17:23:47;2.70;;;1.50;;
25139;SDS011;39015;48.106;-1.682;2023-02-04T17:26:15;1.38;;;0.68;;
25139;SDS011;39015;48.106;-1.682;2023-02-04T17:28:42;0.70;;;0.70;;
25139;SDS011;39015;48.106;-1.682;2023-02-04T17:31:10;2.17;;;1.50;;
25139;SDS011;39015;48.106;-1.682;2023-02-04T17:33:37;1.52;;;0.90;;
25139;SDS011;39015;48.106;-1.682;2023-02-04T17:36:06;4.03;;;1.40;;
25139;SDS011;39015;48.106;-1.682;2023-02-04T17:38:34;0.65;;;0.50;;
25139;SDS011;39015;48.106;-1.682;2023-02-04T17:41:03;1.83;;;0.88;;
25139;SDS011;39015;48.106;-1.682;2023-02-04T17:43:35;2.35;;;0.90;;
25139;SDS011;39015;48.106;-1.682;2023-02-04T17:46:06;2.55;;;1.08;;
25139;SDS011;39015;48.106;-1.682;2023-02-04T17:48:35;2.63;;;1.58;;
25139;SDS011;39015;48.106;-1.682;2023-02-04T17:51:02;5.47;;;1.52;;
25139;SDS011;39015;48.106;-1.682;2023-02-04T17:53:31;4.43;;;1.73;;
25139;SDS011;39015;48.106;-1.682;2023-02-04T17:55:59;3.80;;;1.40;;
25139;SDS011;39015;48.106;-1.682;2023-02-04T17:58:26;3.80;;;1.40;;
25139;SDS011;39015;48.106;-1.682;2023-02-04T18:00:55;3.80;;;1.70;;
25139;SDS011;39015;48.106;-1.682;2023-02-04T18:03:25;2.60;;;1.73;;
25139;SDS011;39015;48.106;-1.682;2023-02-04T18:05:53;2.20;;;0.95;;
25139;SDS011;39015;48.106;-1.682;2023-02-04T18:08:21;3.20;;;1.20;;
25139;SDS011;39015;48.106;-1.682;2023-02-04T18:10:51;4.10;;;1.65;;
25139;SDS011;39015;48.106;-1.682;2023-02-04T18:13:20;2.78;;;1.20;;
25139;SDS011;39015;48.106;-1.682;2023-02-04T18:15:49;2.97;;;1.10;;
25139;SDS011;39015;48.106;-1.682;2023-02-04T18:18:19;4.22;;;1.80;;
25139;SDS011;39015;48.106;-1.682;2023-02-04T18:20:50;5.85;;;2.35;;
25139;SDS011;39015;48.106;-1.682;2023-02-04T18:23:23;3.28;;;2.17;;
25139;SDS011;39015;48.106;-1.682;2023-02-04T18:25:54;4.97;;;1.63;;
25139;SDS011;39015;48.106;-1.682;2023-02-04T18:28:25;10.93;;;2.08;;
25139;SDS011;39015;48.106;-1.682;2023-02-04T18:30:52;5.40;;;1.90;;
25139;SDS011;39015;48.106;-1.682;2023-02-04T18:33:24;4.85;;;2.05;;
25139;SDS011;39015;48.106;-1.682;2023-02-04T18:36:00;3.17;;;1.90;;
25139;SDS011;39015;48.106;-1.682;2023-02-04T18:38:30;3.58;;;1.60;;
25139;SDS011;39015;48.106;-1.682;2023-02-04T18:41:11;5.00;;;1.90;;
25139;SDS011;39015;48.106;-1.682;2023-02-04T18:43:58;3.85;;;1.48;;
25139;SDS011;39015;48.106;-1.682;2023-02-04T18:46:48;2.08;;;1.48;;
25139;SDS011;39015;48.106;-1.682;2023-02-04T18:49:17;5.10;;;1.80;;
25139;SDS011;39015;48.106;-1.682;2023-02-04T18:51:52;3.85;;;2.38;;
25139;SDS011;39015;48.106;-1.682;2023-02-04T18:54:32;3.65;;;1.98;;
25139;SDS011;39015;48.106;-1.682;2023-02-04T18:57:20;2.70;;;1.90;;
25139;SDS011;39015;48.106;-1.682;2023-02-04T19:02:46;3.88;;;2.20;;
25139;SDS011;39015;48.106;-1.682;2023-02-04T19:05:25;7.68;;;2.17;;
25139;SDS011;39015;48.106;-1.682;2023-02-04T19:08:09;4.47;;;2.15;;
25139;SDS011;39015;48.106;-1.682;2023-02-04T19:10:44;4.53;;;1.67;;
25139;SDS011;39015;48.106;-1.682;2023-02-04T19:13:15;2.20;;;1.67;;
25139;SDS011;39015;48.106;-1.682;2023-02-04T19:15:45;4.97;;;1.83;;
25139;SDS011;39015;48.106;-1.682;2023-02-04T19:18:21;2.88;;;1.75;;
25139;SDS011;39015;48.106;-1.682;2023-02-04T19:20:50;3.90;;;1.65;;
25139;SDS011;39015;48.106;-1.682;2023-02-04T19:23:18;5.00;;;1.55;;
25139;SDS011;39015;48.106;-1.682;2023-02-04T19:28:23;2.95;;;1.85;;
25139;SDS011;39015;48.106;-1.682;2023-02-04T19:30:54;2.10;;;1.30;;
25139;SDS011;39015;48.106;-1.682;2023-02-04T19:33:24;2.97;;;1.92;;
25139;SDS011;39015;48.106;-1.682;2023-02-04T19:35:53;2.15;;;1.42;;
25139;SDS011;39015;48.106;-1.682;2023-02-04T19:38:28;3.90;;;1.33;;
25139;SDS011;39015;48.106;-1.682;2023-02-04T19:41:17;2.67;;;1.65;;
25139;SDS011;39015;48.106;-1.682;2023-02-04T19:43:50;1.73;;;1.00;;
25139;SDS011;39015;48.106;-1.682;2023-02-04T19:46:22;3.75;;;1.42;;
25139;SDS011;39015;48.106;-1.682;2023-02-04T19:48:50;2.75;;;1.35;;
25139;SDS011;39015;48.106;-1.682;2023-02-04T19:51:20;3.13;;;2.40;;
25139;SDS011;39015;48.106;-1.682;2023-02-04T19:53:54;2.78;;;1.33;;
25139;SDS011;39015;48.106;-1.682;2023-02-04T19:56:33;3.75;;;1.90;;
25139;SDS011;39015;48.106;-1.682;2023-02-04T20:01:52;3.22;;;1.67;;
25139;SDS011;39015;48.106;-1.682;2023-02-04T20:04:30;3.08;;;1.27;;
25139;SDS011;39015;48.106;-1.682;2023-02-04T20:07:00;1.20;;;1.10;;
25139;SDS011;39015;48.106;-1.682;2023-02-04T20:09:27;1.67;;;1.00;;
25139;SDS011;39015;48.106;-1.682;2023-02-04T20:11:56;5.88;;;1.65;;
25139;SDS011;39015;48.106;-1.682;2023-02-04T20:17:14;6.10;;;1.42;;
25139;SDS011;39015;48.106;-1.682;2023-02-04T20:19:45;2.53;;;1.38;;
25139;SDS011;39015;48.106;-1.682;2023-02-04T20:22:34;1.45;;;1.15;;
25139;SDS011;39015;48.106;-1.682;2023-02-04T20:28:18;1.95;;;1.00;;
25139;SDS011;39015;48.106;-1.682;2023-02-04T20:30:56;1.63;;;1.10;;
25139;SDS011;39015;48.106;-1.682;2023-02-04T20:33:27;2.45;;;1.52;;
25139;SDS011;39015;48.106;-1.682;2023-02-04T20:41:59;1.58;;;0.90;;
25139;SDS011;39015;48.106;-1.682;2023-02-04T20:48:01;3.17;;;1.55;;
25139;SDS011;39015;48.106;-1.682;2023-02-04T20:50:52;3.38;;;1.67;;
25139;SDS011;39015;48.106;-1.682;2023-02-04T20:53:23;1.70;;;1.10;;
25139;SDS011;39015;48.106;-1.682;2023-02-04T20:55:53;3.80;;;1.58;;
25139;SDS011;39015;48.106;-1.682;2023-02-04T20:58:28;1.95;;;1.02;;
25139;SDS011;39015;48.106;-1.682;2023-02-04T21:01:00;9.60;;;3.10;;
25139;SDS011;39015;48.106;-1.682;2023-02-04T21:03:32;6.38;;;1.63;;
25139;SDS011;39015;48.106;-1.682;2023-02-04T21:06:01;1.92;;;1.33;;
25139;SDS011;39015;48.106;-1.682;2023-02-04T21:08:43;2.10;;;1.00;;
25139;SDS011;39015;48.106;-1.682;2023-02-04T21:11:11;1.52;;;1.10;;
25139;SDS011;39015;48.106;-1.682;2023-02-04T21:13:38;1.83;;;1.30;;
25139;SDS011;39015;48.106;-1.682;2023-02-04T21:16:06;3.08;;;1.52;;
25139;SDS011;39015;48.106;-1.682;2023-02-04T21:18:35;2.45;;;1.55;;
25139;SDS011;39015;48.106;-1.682;2023-02-04T21:21:03;2.22;;;1.52;;
25139;SDS011;39015;48.106;-1.682;2023-02-04T21:23:32;1.98;;;1.30;;
25139;SDS011;39015;48.106;-1.682;2023-02-04T21:26:00;1.92;;;1.20;;
25139;SDS011;39015;48.106;-1.682;2023-02-04T21:28:27;3.58;;;1.48;;
25139;SDS011;39015;48.106;-1.682;2023-02-04T21:30:56;4.25;;;1.80;;
25139;SDS011;39015;48.106;-1.682;2023-02-04T21:33:23;2.05;;;1.20;;
25139;SDS011;39015;48.106;-1.682;2023-02-04T21:35:51;3.47;;;2.03;;
25139;SDS011;39015;48.106;-1.682;2023-02-04T21:38:18;2.22;;;1.90;;
25139;SDS011;39015;48.106;-1.682;2023-02-04T21:40:45;1.20;;;1.10;;
25139;SDS011;39015;48.106;-1.682;2023-02-04T21:43:13;12.48;;;2.35;;
25139;SDS011;39015;48.106;-1.682;2023-02-04T21:45:40;3.40;;;1.90;;
25139;SDS011;39015;48.106;-1.682;2023-02-04T21:48:08;1.20;;;1.10;;
25139;SDS011;39015;48.106;-1.682;2023-02-04T21:50:40;5.78;;;1.35;;
25139;SDS011;39015;48.106;-1.682;2023-02-04T21:53:09;2.67;;;0.95;;
25139;SDS011;39015;48.106;-1.682;2023-02-04T21:58:03;3.63;;;1.60;;
25139;SDS011;39015;48.106;-1.682;2023-02-04T22:00:31;6.85;;;2.05;;
25139;SDS011;39015;48.106;-1.682;2023-02-04T22:02:59;1.95;;;1.10;;
25139;SDS011;39015;48.106;-1.682;2023-02-04T22:05:26;3.42;;;1.38;;
25139;SDS011;39015;48.106;-1.682;2023-02-04T22:07:53;3.38;;;1.48;;
25139;SDS011;39015;48.106;-1.682;2023-02-04T22:10:22;2.15;;;1.15;;
25139;SDS011;39015;48.106;-1.682;2023-02-04T22:12:50;6.07;;;1.60;;
25139;SDS011;39015;48.106;-1.682;2023-02-04T22:15:18;1.40;;;0.95;;
25139;SDS011;39015;48.106;-1.682;2023-02-04T22:17:49;5.82;;;1.65;;
25139;SDS011;39015;48.106;-1.682;2023-02-04T22:20:18;1.90;;;1.38;;
25139;SDS011;39015;48.106;-1.682;2023-02-04T22:22:46;1.40;;;1.30;;
25139;SDS011;39015;48.106;-1.682;2023-02-04T22:25:14;7.10;;;1.77;;
25139;SDS011;39015;48.106;-1.682;2023-02-04T22:27:44;4.05;;;1.65;;
25139;SDS011;39015;48.106;-1.682;2023-02-04T22:30:12;1.23;;;1.00;;
25139;SDS011;39015;48.106;-1.682;2023-02-04T22:32:40;2.55;;;1.50;;
25139;SDS011;39015;48.106;-1.682;2023-02-04T22:35:08;4.53;;;1.75;;